sensor_id;sensor_type;location;lat;lon;timestamp;temperature;humidity
51825;DHT22;37879;52.986;6.282;2023-12-14T00:01:20;4.80;99.90
51825;DHT22;37879;52.986;6.282;2023-12-14T00:03:45;4.80;99.90
51825;DHT22;37879;52.986;6.282;2023-12-14T00:06:11;4.80;99.90
51825;DHT22;37879;52.986;6.282;2023-12-14T00:08:37;3.70;99.90
51825;DHT22;37879;52.986;6.282;2023-12-14T00:11:07;4.70;99.90
51825;DHT22;37879;52.986;6.282;2023-12-14T00:13:33;4.70;99.90
51825;DHT22;37879;52.986;6.282;2023-12-14T00:15:59;4.80;99.90
51825;DHT22;37879;52.986;6.282;2023-12-14T00:18:26;2.90;99.90
51825;DHT22;37879;52.986;6.282;2023-12-14T00:20:51;4.70;99.90
51825;DHT22;37879;52.986;6.282;2023-12-14T00:23:18;4.70;99.90
51825;DHT22;37879;52.986;6.282;2023-12-14T00:25:44;4.70;99.90
51825;DHT22;37879;52.986;6.282;2023-12-14T00:28:09;4.70;99.90
51825;DHT22;37879;52.986;6.282;2023-12-14T00:30:35;4.70;99.90
51825;DHT22;37879;52.986;6.282;2023-12-14T00:33:01;4.70;99.90
51825;DHT22;37879;52.986;6.282;2023-12-14T00:35:26;4.70;99.90
51825;DHT22;37879;52.986;6.282;2023-12-14T00:37:52;4.70;99.90
51825;DHT22;37879;52.986;6.282;2023-12-14T00:40:18;4.70;99.90
51825;DHT22;37879;52.986;6.282;2023-12-14T00:42:43;4.90;99.90
51825;DHT22;37879;52.986;6.282;2023-12-14T00:45:09;4.90;99.90
51825;DHT22;37879;52.986;6.282;2023-12-14T00:47:35;4.70;99.90
51825;DHT22;37879;52.986;6.282;2023-12-14T00:50:01;4.60;99.90
51825;DHT22;37879;52.986;6.282;2023-12-14T00:52:27;4.60;99.90
51825;DHT22;37879;52.986;6.282;2023-12-14T00:54:53;4.60;99.90
51825;DHT22;37879;52.986;6.282;2023-12-14T00:57:19;4.60;99.90
51825;DHT22;37879;52.986;6.282;2023-12-14T00:59:45;4.60;99.90
51825;DHT22;37879;52.986;6.282;2023-12-14T01:02:11;4.60;99.90
51825;DHT22;37879;52.986;6.282;2023-12-14T01:04:36;4.60;99.90
51825;DHT22;37879;52.986;6.282;2023-12-14T01:07:03;4.60;99.90
51825;DHT22;37879;52.986;6.282;2023-12-14T01:09:29;4.60;99.90
51825;DHT22;37879;52.986;6.282;2023-12-14T01:11:54;5.10;99.90
51825;DHT22;37879;52.986;6.282;2023-12-14T01:14:20;4.60;99.90
51825;DHT22;37879;52.986;6.282;2023-12-14T01:16:46;4.60;99.90
51825;DHT22;37879;52.986;6.282;2023-12-14T01:19:11;4.60;99.90
51825;DHT22;37879;52.986;6.282;2023-12-14T01:21:37;3.80;99.90
51825;DHT22;37879;52.986;6.282;2023-12-14T01:24:03;4.60;99.90
51825;DHT22;37879;52.986;6.282;2023-12-14T01:26:28;4.50;99.90
51825;DHT22;37879;52.986;6.282;2023-12-14T01:28:54;4.50;99.90
51825;DHT22;37879;52.986;6.282;2023-12-14T01:31:20;4.50;99.90
51825;DHT22;37879;52.986;6.282;2023-12-14T01:33:49;4.50;99.90
51825;DHT22;37879;52.986;6.282;2023-12-14T01:36:25;4.50;99.90
51825;DHT22;37879;52.986;6.282;2023-12-14T01:38:51;4.50;99.90
51825;DHT22;37879;52.986;6.282;2023-12-14T01:41:17;4.90;99.90
51825;DHT22;37879;52.986;6.282;2023-12-14T01:43:43;5.30;99.90
51825;DHT22;37879;52.986;6.282;2023-12-14T01:46:08;4.50;99.90
51825;DHT22;37879;52.986;6.282;2023-12-14T01:48:34;4.50;99.90
51825;DHT22;37879;52.986;6.282;2023-12-14T01:51:00;4.50;99.90
51825;DHT22;37879;52.986;6.282;2023-12-14T01:53:26;4.50;99.90
51825;DHT22;37879;52.986;6.282;2023-12-14T01:55:52;4.50;99.90
51825;DHT22;37879;52.986;6.282;2023-12-14T01:58:18;4.50;99.90
51825;DHT22;37879;52.986;6.282;2023-12-14T02:00:52;4.50;99.90
51825;DHT22;37879;52.986;6.282;2023-12-14T02:03:22;4.70;99.90
51825;DHT22;37879;52.986;6.282;2023-12-14T02:05:47;4.50;99.90
51825;DHT22;37879;52.986;6.282;2023-12-14T02:08:13;4.50;99.90
51825;DHT22;37879;52.986;6.282;2023-12-14T02:10:39;4.50;99.90
51825;DHT22;37879;52.986;6.282;2023-12-14T02:13:04;4.50;99.90
51825;DHT22;37879;52.986;6.282;2023-12-14T02:15:30;4.80;99.90
51825;DHT22;37879;52.986;6.282;2023-12-14T02:17:56;4.50;99.90
51825;DHT22;37879;52.986;6.282;2023-12-14T02:22:51;4.50;99.90
51825;DHT22;37879;52.986;6.282;2023-12-14T02:25:18;4.90;99.90
51825;DHT22;37879;52.986;6.282;2023-12-14T02:27:44;5.20;99.90
51825;DHT22;37879;52.986;6.282;2023-12-14T02:30:11;4.50;99.90
51825;DHT22;37879;52.986;6.282;2023-12-14T02:32:38;4.50;99.90
51825;DHT22;37879;52.986;6.282;2023-12-14T02:35:04;4.50;99.90
51825;DHT22;37879;52.986;6.282;2023-12-14T02:37:31;4.50;99.90
51825;DHT22;37879;52.986;6.282;2023-12-14T02:39:58;4.50;99.90
51825;DHT22;37879;52.986;6.282;2023-12-14T02:42:24;4.50;99.90
51825;DHT22;37879;52.986;6.282;2023-12-14T02:44:50;4.50;99.90
51825;DHT22;37879;52.986;6.282;2023-12-14T02:47:16;4.40;99.90
51825;DHT22;37879;52.986;6.282;2023-12-14T02:49:42;4.40;99.90
51825;DHT22;37879;52.986;6.282;2023-12-14T02:52:08;4.40;99.90
51825;DHT22;37879;52.986;6.282;2023-12-14T02:54:33;4.40;99.90
51825;DHT22;37879;52.986;6.282;2023-12-14T02:56:59;4.50;99.90
51825;DHT22;37879;52.986;6.282;2023-12-14T02:59:25;4.90;99.90
51825;DHT22;37879;52.986;6.282;2023-12-14T03:01:50;4.50;99.90
51825;DHT22;37879;52.986;6.282;2023-12-14T03:04:16;4.50;99.90
51825;DHT22;37879;52.986;6.282;2023-12-14T03:06:41;4.50;99.90
51825;DHT22;37879;52.986;6.282;2023-12-14T03:09:07;4.50;99.90
51825;DHT22;37879;52.986;6.282;2023-12-14T03:11:33;4.50;99.90
51825;DHT22;37879;52.986;6.282;2023-12-14T03:13:59;4.40;99.90
51825;DHT22;37879;52.986;6.282;2023-12-14T03:16:24;4.40;99.90
51825;DHT22;37879;52.986;6.282;2023-12-14T03:18:50;5.30;99.90
51825;DHT22;37879;52.986;6.282;2023-12-14T03:21:19;4.40;99.90
51825;DHT22;37879;52.986;6.282;2023-12-14T03:23:45;4.40;99.90
51825;DHT22;37879;52.986;6.282;2023-12-14T03:26:11;4.40;99.90
51825;DHT22;37879;52.986;6.282;2023-12-14T03:28:37;4.40;99.90
51825;DHT22;37879;52.986;6.282;2023-12-14T03:31:03;4.40;99.90
51825;DHT22;37879;52.986;6.282;2023-12-14T03:33:29;4.50;99.90
51825;DHT22;37879;52.986;6.282;2023-12-14T03:35:55;4.40;99.90
51825;DHT22;37879;52.986;6.282;2023-12-14T03:38:20;4.40;99.90
51825;DHT22;37879;52.986;6.282;2023-12-14T03:40:46;4.40;99.90
51825;DHT22;37879;52.986;6.282;2023-12-14T03:43:12;4.40;99.90
51825;DHT22;37879;52.986;6.282;2023-12-14T03:45:37;4.40;99.90
51825;DHT22;37879;52.986;6.282;2023-12-14T03:48:03;4.40;99.90
51825;DHT22;37879;52.986;6.282;2023-12-14T03:50:29;4.40;99.90
51825;DHT22;37879;52.986;6.282;2023-12-14T03:52:55;4.40;99.90
51825;DHT22;37879;52.986;6.282;2023-12-14T03:55:20;4.40;99.90
51825;DHT22;37879;52.986;6.282;2023-12-14T03:57:46;4.40;99.90
51825;DHT22;37879;52.986;6.282;2023-12-14T04:00:13;4.40;99.90
51825;DHT22;37879;52.986;6.282;2023-12-14T04:02:41;4.40;99.90
51825;DHT22;37879;52.986;6.282;2023-12-14T04:05:07;4.40;99.90
51825;DHT22;37879;52.986;6.282;2023-12-14T04:07:36;4.40;99.90
51825;DHT22;37879;52.986;6.282;2023-12-14T04:10:02;4.40;99.90
51825;DHT22;37879;52.986;6.282;2023-12-14T04:12:27;4.70;99.90
51825;DHT22;37879;52.986;6.282;2023-12-14T04:14:53;4.40;99.90
51825;DHT22;37879;52.986;6.282;2023-12-14T04:17:19;4.40;99.90
51825;DHT22;37879;52.986;6.282;2023-12-14T04:19:44;4.40;99.90
51825;DHT22;37879;52.986;6.282;2023-12-14T04:22:10;4.40;99.90
51825;DHT22;37879;52.986;6.282;2023-12-14T04:24:36;4.40;99.90
51825;DHT22;37879;52.986;6.282;2023-12-14T04:27:01;4.40;99.90
51825;DHT22;37879;52.986;6.282;2023-12-14T04:29:27;4.70;99.90
51825;DHT22;37879;52.986;6.282;2023-12-14T04:31:53;4.40;99.90
51825;DHT22;37879;52.986;6.282;2023-12-14T04:34:19;4.40;99.90
51825;DHT22;37879;52.986;6.282;2023-12-14T04:36:45;4.40;99.90
51825;DHT22;37879;52.986;6.282;2023-12-14T04:39:11;4.40;99.90
51825;DHT22;37879;52.986;6.282;2023-12-14T04:41:37;4.40;99.90
51825;DHT22;37879;52.986;6.282;2023-12-14T04:44:03;4.80;99.90
51825;DHT22;37879;52.986;6.282;2023-12-14T04:46:29;4.40;99.90
51825;DHT22;37879;52.986;6.282;2023-12-14T04:48:55;4.40;99.90
51825;DHT22;37879;52.986;6.282;2023-12-14T04:51:21;4.40;99.90
51825;DHT22;37879;52.986;6.282;2023-12-14T04:53:46;4.80;99.90
51825;DHT22;37879;52.986;6.282;2023-12-14T04:56:12;4.80;99.90
51825;DHT22;37879;52.986;6.282;2023-12-14T04:58:39;4.40;99.90
51825;DHT22;37879;52.986;6.282;2023-12-14T05:01:05;4.40;99.90
51825;DHT22;37879;52.986;6.282;2023-12-14T05:03:31;4.40;99.90
51825;DHT22;37879;52.986;6.282;2023-12-14T05:05:57;4.40;99.90
51825;DHT22;37879;52.986;6.282;2023-12-14T05:08:22;4.80;99.90
51825;DHT22;37879;52.986;6.282;2023-12-14T05:10:49;4.70;99.90
51825;DHT22;37879;52.986;6.282;2023-12-14T05:13:15;4.40;99.90
51825;DHT22;37879;52.986;6.282;2023-12-14T05:15:40;4.40;99.90
51825;DHT22;37879;52.986;6.282;2023-12-14T05:18:07;4.50;99.90
51825;DHT22;37879;52.986;6.282;2023-12-14T05:20:33;4.50;99.90
51825;DHT22;37879;52.986;6.282;2023-12-14T05:22:59;4.40;99.90
51825;DHT22;37879;52.986;6.282;2023-12-14T05:25:25;4.40;99.90
51825;DHT22;37879;52.986;6.282;2023-12-14T05:27:51;4.40;99.90
51825;DHT22;37879;52.986;6.282;2023-12-14T05:30:17;4.40;99.90
51825;DHT22;37879;52.986;6.282;2023-12-14T05:32:43;4.40;99.90
51825;DHT22;37879;52.986;6.282;2023-12-14T05:35:09;4.80;99.90
51825;DHT22;37879;52.986;6.282;2023-12-14T05:37:35;4.40;99.90
51825;DHT22;37879;52.986;6.282;2023-12-14T05:40:02;4.40;99.90
51825;DHT22;37879;52.986;6.282;2023-12-14T05:42:28;4.40;99.90
51825;DHT22;37879;52.986;6.282;2023-12-14T05:44:54;4.40;99.90
51825;DHT22;37879;52.986;6.282;2023-12-14T05:47:20;4.40;99.90
51825;DHT22;37879;52.986;6.282;2023-12-14T05:49:45;4.40;99.90
51825;DHT22;37879;52.986;6.282;2023-12-14T05:52:11;4.40;99.90
51825;DHT22;37879;52.986;6.282;2023-12-14T05:54:38;4.30;99.90
51825;DHT22;37879;52.986;6.282;2023-12-14T05:57:05;4.30;99.90
51825;DHT22;37879;52.986;6.282;2023-12-14T05:59:31;4.30;99.90
51825;DHT22;37879;52.986;6.282;2023-12-14T06:02:00;4.30;99.90
51825;DHT22;37879;52.986;6.282;2023-12-14T06:04:27;4.30;99.90
51825;DHT22;37879;52.986;6.282;2023-12-14T06:06:53;4.30;99.90
51825;DHT22;37879;52.986;6.282;2023-12-14T06:09:19;4.30;99.90
51825;DHT22;37879;52.986;6.282;2023-12-14T06:11:50;4.30;99.90
51825;DHT22;37879;52.986;6.282;2023-12-14T06:14:17;4.30;99.90
51825;DHT22;37879;52.986;6.282;2023-12-14T06:16:42;4.30;99.90
51825;DHT22;37879;52.986;6.282;2023-12-14T06:19:08;4.40;99.90
51825;DHT22;37879;52.986;6.282;2023-12-14T06:21:34;4.40;99.90
51825;DHT22;37879;52.986;6.282;2023-12-14T06:23:59;4.40;99.90
51825;DHT22;37879;52.986;6.282;2023-12-14T06:26:25;4.90;99.90
51825;DHT22;37879;52.986;6.282;2023-12-14T06:28:51;4.10;99.90
51825;DHT22;37879;52.986;6.282;2023-12-14T06:31:18;4.60;99.90
51825;DHT22;37879;52.986;6.282;2023-12-14T06:33:50;4.30;99.90
51825;DHT22;37879;52.986;6.282;2023-12-14T06:36:16;4.40;99.90
51825;DHT22;37879;52.986;6.282;2023-12-14T06:38:45;4.40;99.90
51825;DHT22;37879;52.986;6.282;2023-12-14T06:41:23;5.00;99.90
51825;DHT22;37879;52.986;6.282;2023-12-14T06:43:50;4.40;99.90
51825;DHT22;37879;52.986;6.282;2023-12-14T06:46:16;4.40;99.90
51825;DHT22;37879;52.986;6.282;2023-12-14T06:48:42;5.70;99.90
51825;DHT22;37879;52.986;6.282;2023-12-14T06:51:08;4.40;99.90
51825;DHT22;37879;52.986;6.282;2023-12-14T06:53:34;4.40;99.90
51825;DHT22;37879;52.986;6.282;2023-12-14T06:56:01;4.40;99.90
51825;DHT22;37879;52.986;6.282;2023-12-14T06:58:26;4.70;99.90
51825;DHT22;37879;52.986;6.282;2023-12-14T07:00:52;4.40;99.90
51825;DHT22;37879;52.986;6.282;2023-12-14T07:03:18;4.40;99.90
51825;DHT22;37879;52.986;6.282;2023-12-14T07:05:44;4.40;99.90
51825;DHT22;37879;52.986;6.282;2023-12-14T07:08:09;4.40;99.90
51825;DHT22;37879;52.986;6.282;2023-12-14T07:10:35;4.40;99.90
51825;DHT22;37879;52.986;6.282;2023-12-14T07:13:01;4.40;99.90
51825;DHT22;37879;52.986;6.282;2023-12-14T07:15:27;4.40;99.90
51825;DHT22;37879;52.986;6.282;2023-12-14T07:17:52;4.40;99.90
51825;DHT22;37879;52.986;6.282;2023-12-14T07:20:18;4.60;99.90
51825;DHT22;37879;52.986;6.282;2023-12-14T07:22:43;4.40;99.90
51825;DHT22;37879;52.986;6.282;2023-12-14T07:25:09;4.40;99.90
51825;DHT22;37879;52.986;6.282;2023-12-14T07:27:35;4.40;99.90
51825;DHT22;37879;52.986;6.282;2023-12-14T07:30:01;4.70;99.90
51825;DHT22;37879;52.986;6.282;2023-12-14T07:32:26;4.30;99.90
51825;DHT22;37879;52.986;6.282;2023-12-14T07:34:52;4.30;99.90
51825;DHT22;37879;52.986;6.282;2023-12-14T07:37:18;4.30;99.90
51825;DHT22;37879;52.986;6.282;2023-12-14T07:39:44;4.30;99.90
51825;DHT22;37879;52.986;6.282;2023-12-14T07:42:10;4.30;99.90
51825;DHT22;37879;52.986;6.282;2023-12-14T07:44:35;4.20;99.90
51825;DHT22;37879;52.986;6.282;2023-12-14T07:47:03;4.20;99.90
51825;DHT22;37879;52.986;6.282;2023-12-14T07:49:28;4.10;99.90
51825;DHT22;37879;52.986;6.282;2023-12-14T07:51:54;4.10;99.90
51825;DHT22;37879;52.986;6.282;2023-12-14T07:54:20;4.10;99.90
51825;DHT22;37879;52.986;6.282;2023-12-14T07:56:45;4.10;99.90
51825;DHT22;37879;52.986;6.282;2023-12-14T07:59:12;4.20;99.90
51825;DHT22;37879;52.986;6.282;2023-12-14T08:01:38;4.20;99.90
51825;DHT22;37879;52.986;6.282;2023-12-14T08:04:04;4.20;99.90
51825;DHT22;37879;52.986;6.282;2023-12-14T08:06:30;4.20;99.90
51825;DHT22;37879;52.986;6.282;2023-12-14T08:08:56;4.30;99.90
51825;DHT22;37879;52.986;6.282;2023-12-14T08:11:25;4.70;99.90
51825;DHT22;37879;52.986;6.282;2023-12-14T08:13:51;4.40;99.90
51825;DHT22;37879;52.986;6.282;2023-12-14T08:16:16;4.40;99.90
51825;DHT22;37879;52.986;6.282;2023-12-14T08:18:45;4.40;99.90
51825;DHT22;37879;52.986;6.282;2023-12-14T08:21:14;4.40;99.90
51825;DHT22;37879;52.986;6.282;2023-12-14T08:23:40;4.40;99.90
51825;DHT22;37879;52.986;6.282;2023-12-14T08:26:06;4.40;99.90
51825;DHT22;37879;52.986;6.282;2023-12-14T08:28:33;4.50;99.90
51825;DHT22;37879;52.986;6.282;2023-12-14T08:31:00;4.60;99.90
51825;DHT22;37879;52.986;6.282;2023-12-14T08:33:28;4.60;99.90
51825;DHT22;37879;52.986;6.282;2023-12-14T08:35:54;4.50;99.90
51825;DHT22;37879;52.986;6.282;2023-12-14T08:38:20;4.40;99.90
51825;DHT22;37879;52.986;6.282;2023-12-14T08:40:46;4.40;99.90
51825;DHT22;37879;52.986;6.282;2023-12-14T08:43:12;4.40;99.90
51825;DHT22;37879;52.986;6.282;2023-12-14T08:45:37;4.40;99.90
51825;DHT22;37879;52.986;6.282;2023-12-14T08:48:04;4.90;99.90
51825;DHT22;37879;52.986;6.282;2023-12-14T08:50:29;4.50;99.90
51825;DHT22;37879;52.986;6.282;2023-12-14T08:52:55;4.50;99.90
51825;DHT22;37879;52.986;6.282;2023-12-14T08:55:23;4.50;99.90
51825;DHT22;37879;52.986;6.282;2023-12-14T08:57:50;4.50;99.90
51825;DHT22;37879;52.986;6.282;2023-12-14T09:00:16;4.60;99.90
51825;DHT22;37879;52.986;6.282;2023-12-14T09:02:43;6.30;99.90
51825;DHT22;37879;52.986;6.282;2023-12-14T09:05:12;4.70;99.90
51825;DHT22;37879;52.986;6.282;2023-12-14T09:07:38;4.60;99.90
51825;DHT22;37879;52.986;6.282;2023-12-14T09:10:04;4.70;99.90
51825;DHT22;37879;52.986;6.282;2023-12-14T09:12:30;4.70;99.90
51825;DHT22;37879;52.986;6.282;2023-12-14T09:14:55;5.00;99.90
51825;DHT22;37879;52.986;6.282;2023-12-14T09:17:21;4.70;99.90
51825;DHT22;37879;52.986;6.282;2023-12-14T09:19:47;4.80;99.90
51825;DHT22;37879;52.986;6.282;2023-12-14T09:22:12;4.80;99.90
51825;DHT22;37879;52.986;6.282;2023-12-14T09:24:38;4.80;99.90
51825;DHT22;37879;52.986;6.282;2023-12-14T09:27:04;4.80;99.90
51825;DHT22;37879;52.986;6.282;2023-12-14T09:29:30;4.90;99.90
51825;DHT22;37879;52.986;6.282;2023-12-14T09:31:55;4.90;99.90
51825;DHT22;37879;52.986;6.282;2023-12-14T09:34:21;4.90;99.90
51825;DHT22;37879;52.986;6.282;2023-12-14T09:36:47;4.90;99.90
51825;DHT22;37879;52.986;6.282;2023-12-14T09:39:12;4.90;99.90
51825;DHT22;37879;52.986;6.282;2023-12-14T09:41:39;4.90;99.90
51825;DHT22;37879;52.986;6.282;2023-12-14T09:44:05;5.00;99.90
51825;DHT22;37879;52.986;6.282;2023-12-14T09:46:34;5.00;99.90
51825;DHT22;37879;52.986;6.282;2023-12-14T09:49:02;5.00;99.90
51825;DHT22;37879;52.986;6.282;2023-12-14T09:51:30;5.50;99.90
51825;DHT22;37879;52.986;6.282;2023-12-14T09:53:56;5.00;99.90
51825;DHT22;37879;52.986;6.282;2023-12-14T09:56:26;5.20;99.90
51825;DHT22;37879;52.986;6.282;2023-12-14T09:58:52;5.00;99.90
51825;DHT22;37879;52.986;6.282;2023-12-14T10:01:26;5.10;99.90
51825;DHT22;37879;52.986;6.282;2023-12-14T10:04:09;5.10;99.90
51825;DHT22;37879;52.986;6.282;2023-12-14T10:06:35;5.10;99.90
51825;DHT22;37879;52.986;6.282;2023-12-14T10:09:01;5.10;99.90
51825;DHT22;37879;52.986;6.282;2023-12-14T10:11:27;5.10;99.90
51825;DHT22;37879;52.986;6.282;2023-12-14T10:13:52;5.10;99.90
51825;DHT22;37879;52.986;6.282;2023-12-14T10:16:32;5.30;99.90
51825;DHT22;37879;52.986;6.282;2023-12-14T10:18:59;5.30;99.90
51825;DHT22;37879;52.986;6.282;2023-12-14T10:21:28;5.30;99.90
51825;DHT22;37879;52.986;6.282;2023-12-14T10:23:57;5.30;99.90
51825;DHT22;37879;52.986;6.282;2023-12-14T10:28:50;5.10;99.90
51825;DHT22;37879;52.986;6.282;2023-12-14T10:31:20;5.10;99.90
51825;DHT22;37879;52.986;6.282;2023-12-14T10:33:47;5.10;99.90
51825;DHT22;37879;52.986;6.282;2023-12-14T10:36:20;5.10;99.90
51825;DHT22;37879;52.986;6.282;2023-12-14T10:38:48;5.20;99.90
51825;DHT22;37879;52.986;6.282;2023-12-14T10:41:17;5.20;99.90
51825;DHT22;37879;52.986;6.282;2023-12-14T10:43:44;5.20;99.90
51825;DHT22;37879;52.986;6.282;2023-12-14T10:46:10;5.30;99.90
51825;DHT22;37879;52.986;6.282;2023-12-14T10:48:36;5.30;99.90
51825;DHT22;37879;52.986;6.282;2023-12-14T10:51:10;5.30;99.90
51825;DHT22;37879;52.986;6.282;2023-12-14T10:53:37;5.30;99.90
51825;DHT22;37879;52.986;6.282;2023-12-14T10:56:05;5.30;99.90
51825;DHT22;37879;52.986;6.282;2023-12-14T10:58:45;5.30;99.90
51825;DHT22;37879;52.986;6.282;2023-12-14T11:01:19;5.30;99.90
51825;DHT22;37879;52.986;6.282;2023-12-14T11:03:47;5.40;99.90
51825;DHT22;37879;52.986;6.282;2023-12-14T11:06:36;5.50;99.90
51825;DHT22;37879;52.986;6.282;2023-12-14T11:09:08;5.50;99.90
51825;DHT22;37879;52.986;6.282;2023-12-14T11:11:56;5.50;99.90
51825;DHT22;37879;52.986;6.282;2023-12-14T11:14:23;5.60;99.90
51825;DHT22;37879;52.986;6.282;2023-12-14T11:16:53;5.50;99.90
51825;DHT22;37879;52.986;6.282;2023-12-14T11:22:09;5.50;99.90
51825;DHT22;37879;52.986;6.282;2023-12-14T11:24:34;5.60;99.90
51825;DHT22;37879;52.986;6.282;2023-12-14T11:27:03;5.60;99.90
51825;DHT22;37879;52.986;6.282;2023-12-14T11:29:29;5.60;99.90
51825;DHT22;37879;52.986;6.282;2023-12-14T11:31:55;5.70;99.90
51825;DHT22;37879;52.986;6.282;2023-12-14T11:34:24;5.70;99.90
51825;DHT22;37879;52.986;6.282;2023-12-14T11:36:50;5.80;99.90
51825;DHT22;37879;52.986;6.282;2023-12-14T11:39:16;5.80;99.90
51825;DHT22;37879;52.986;6.282;2023-12-14T11:41:42;5.80;99.90
51825;DHT22;37879;52.986;6.282;2023-12-14T11:44:07;5.80;99.90
51825;DHT22;37879;52.986;6.282;2023-12-14T11:46:33;5.80;99.90
51825;DHT22;37879;52.986;6.282;2023-12-14T11:48:59;5.80;99.90
51825;DHT22;37879;52.986;6.282;2023-12-14T11:51:28;5.80;99.90
51825;DHT22;37879;52.986;6.282;2023-12-14T11:53:57;5.80;99.90
51825;DHT22;37879;52.986;6.282;2023-12-14T11:56:25;7.00;99.90
51825;DHT22;37879;52.986;6.282;2023-12-14T11:58:51;5.80;99.90
51825;DHT22;37879;52.986;6.282;2023-12-14T12:01:19;5.80;99.90
51825;DHT22;37879;52.986;6.282;2023-12-14T12:03:47;5.90;99.90
51825;DHT22;37879;52.986;6.282;2023-12-14T12:06:25;5.90;99.90
51825;DHT22;37879;52.986;6.282;2023-12-14T12:08:53;5.90;99.90
51825;DHT22;37879;52.986;6.282;2023-12-14T12:11:20;5.80;99.90
51825;DHT22;37879;52.986;6.282;2023-12-14T12:13:54;5.80;99.90
51825;DHT22;37879;52.986;6.282;2023-12-14T12:16:20;5.80;99.90
51825;DHT22;37879;52.986;6.282;2023-12-14T12:18:46;5.70;99.90
51825;DHT22;37879;52.986;6.282;2023-12-14T12:21:12;5.60;99.90
51825;DHT22;37879;52.986;6.282;2023-12-14T12:23:38;5.50;99.90
51825;DHT22;37879;52.986;6.282;2023-12-14T12:26:04;5.50;99.90
51825;DHT22;37879;52.986;6.282;2023-12-14T12:28:31;5.50;99.90
51825;DHT22;37879;52.986;6.282;2023-12-14T12:30:57;5.50;99.90
51825;DHT22;37879;52.986;6.282;2023-12-14T12:33:23;5.50;99.90
51825;DHT22;37879;52.986;6.282;2023-12-14T12:35:49;5.70;99.90
51825;DHT22;37879;52.986;6.282;2023-12-14T12:38:15;5.40;99.90
51825;DHT22;37879;52.986;6.282;2023-12-14T12:40:42;5.50;99.90
51825;DHT22;37879;52.986;6.282;2023-12-14T12:43:07;5.90;99.90
51825;DHT22;37879;52.986;6.282;2023-12-14T12:45:33;5.40;99.90
51825;DHT22;37879;52.986;6.282;2023-12-14T12:48:01;5.40;99.90
51825;DHT22;37879;52.986;6.282;2023-12-14T12:50:29;5.40;99.90
51825;DHT22;37879;52.986;6.282;2023-12-14T12:52:55;5.30;99.90
51825;DHT22;37879;52.986;6.282;2023-12-14T12:55:20;5.30;99.90
51825;DHT22;37879;52.986;6.282;2023-12-14T12:57:48;5.30;99.90
51825;DHT22;37879;52.986;6.282;2023-12-14T13:00:14;5.30;99.90
51825;DHT22;37879;52.986;6.282;2023-12-14T13:02:41;5.20;99.90
51825;DHT22;37879;52.986;6.282;2023-12-14T13:05:08;5.30;99.90
51825;DHT22;37879;52.986;6.282;2023-12-14T13:07:35;5.40;99.90
51825;DHT22;37879;52.986;6.282;2023-12-14T13:10:04;5.40;99.90
51825;DHT22;37879;52.986;6.282;2023-12-14T13:12:32;5.40;99.90
51825;DHT22;37879;52.986;6.282;2023-12-14T13:14:58;5.50;99.90
51825;DHT22;37879;52.986;6.282;2023-12-14T13:17:24;5.10;99.90
51825;DHT22;37879;52.986;6.282;2023-12-14T13:19:52;5.50;99.90
51825;DHT22;37879;52.986;6.282;2023-12-14T13:22:18;5.60;99.90
51825;DHT22;37879;52.986;6.282;2023-12-14T13:24:45;5.60;99.90
51825;DHT22;37879;52.986;6.282;2023-12-14T13:27:11;5.60;99.90
51825;DHT22;37879;52.986;6.282;2023-12-14T13:29:37;5.60;99.90
51825;DHT22;37879;52.986;6.282;2023-12-14T13:32:03;5.60;99.90
51825;DHT22;37879;52.986;6.282;2023-12-14T13:34:29;5.60;99.90
51825;DHT22;37879;52.986;6.282;2023-12-14T13:36:55;5.60;99.90
51825;DHT22;37879;52.986;6.282;2023-12-14T13:39:21;5.60;99.90
51825;DHT22;37879;52.986;6.282;2023-12-14T13:41:47;5.70;99.90
51825;DHT22;37879;52.986;6.282;2023-12-14T13:44:13;5.60;99.90
51825;DHT22;37879;52.986;6.282;2023-12-14T13:46:39;5.60;99.90
51825;DHT22;37879;52.986;6.282;2023-12-14T13:49:05;5.60;99.90
51825;DHT22;37879;52.986;6.282;2023-12-14T13:51:30;5.60;99.90
51825;DHT22;37879;52.986;6.282;2023-12-14T13:53:56;5.60;99.90
51825;DHT22;37879;52.986;6.282;2023-12-14T13:56:22;5.70;99.90
51825;DHT22;37879;52.986;6.282;2023-12-14T13:58:47;5.70;99.90
51825;DHT22;37879;52.986;6.282;2023-12-14T14:01:13;5.60;99.90
51825;DHT22;37879;52.986;6.282;2023-12-14T14:03:41;5.60;99.90
51825;DHT22;37879;52.986;6.282;2023-12-14T14:06:07;5.60;99.90
51825;DHT22;37879;52.986;6.282;2023-12-14T14:08:33;5.50;99.90
51825;DHT22;37879;52.986;6.282;2023-12-14T14:10:59;5.50;99.90
51825;DHT22;37879;52.986;6.282;2023-12-14T14:13:25;5.50;99.90
51825;DHT22;37879;52.986;6.282;2023-12-14T14:15:51;5.50;99.90
51825;DHT22;37879;52.986;6.282;2023-12-14T14:18:17;5.50;99.90
51825;DHT22;37879;52.986;6.282;2023-12-14T14:20:43;5.50;99.90
51825;DHT22;37879;52.986;6.282;2023-12-14T14:23:09;5.60;99.90
51825;DHT22;37879;52.986;6.282;2023-12-14T14:25:34;5.60;99.90
51825;DHT22;37879;52.986;6.282;2023-12-14T14:28:00;5.60;99.90
51825;DHT22;37879;52.986;6.282;2023-12-14T14:30:26;5.60;99.90
51825;DHT22;37879;52.986;6.282;2023-12-14T14:32:52;5.60;99.90
51825;DHT22;37879;52.986;6.282;2023-12-14T14:35:18;5.60;99.90
51825;DHT22;37879;52.986;6.282;2023-12-14T14:37:43;5.60;99.90
51825;DHT22;37879;52.986;6.282;2023-12-14T14:40:14;5.70;99.90
51825;DHT22;37879;52.986;6.282;2023-12-14T14:42:41;5.60;99.90
51825;DHT22;37879;52.986;6.282;2023-12-14T14:45:10;5.60;99.90
51825;DHT22;37879;52.986;6.282;2023-12-14T14:47:36;5.80;99.90
51825;DHT22;37879;52.986;6.282;2023-12-14T14:50:03;5.50;99.90
51825;DHT22;37879;52.986;6.282;2023-12-14T14:52:33;5.40;99.90
51825;DHT22;37879;52.986;6.282;2023-12-14T14:54:59;5.30;99.90
51825;DHT22;37879;52.986;6.282;2023-12-14T14:57:25;5.50;99.90
51825;DHT22;37879;52.986;6.282;2023-12-14T14:59:51;5.20;99.90
51825;DHT22;37879;52.986;6.282;2023-12-14T15:02:16;5.10;99.90
51825;DHT22;37879;52.986;6.282;2023-12-14T15:04:42;5.00;99.90
51825;DHT22;37879;52.986;6.282;2023-12-14T15:07:08;4.90;99.90
51825;DHT22;37879;52.986;6.282;2023-12-14T15:09:33;4.90;99.90
51825;DHT22;37879;52.986;6.282;2023-12-14T15:11:59;4.80;99.90
51825;DHT22;37879;52.986;6.282;2023-12-14T15:14:25;4.70;99.90
51825;DHT22;37879;52.986;6.282;2023-12-14T15:16:56;4.60;99.90
51825;DHT22;37879;52.986;6.282;2023-12-14T15:19:21;4.60;99.90
51825;DHT22;37879;52.986;6.282;2023-12-14T15:21:47;4.50;99.90
51825;DHT22;37879;52.986;6.282;2023-12-14T15:24:13;4.50;99.90
51825;DHT22;37879;52.986;6.282;2023-12-14T15:26:40;4.50;99.90
51825;DHT22;37879;52.986;6.282;2023-12-14T15:29:06;4.50;99.90
51825;DHT22;37879;52.986;6.282;2023-12-14T15:31:32;4.50;99.90
51825;DHT22;37879;52.986;6.282;2023-12-14T15:33:58;4.40;99.90
51825;DHT22;37879;52.986;6.282;2023-12-14T15:36:24;4.40;99.90
51825;DHT22;37879;52.986;6.282;2023-12-14T15:38:50;4.40;99.90
51825;DHT22;37879;52.986;6.282;2023-12-14T15:41:16;4.50;99.90
51825;DHT22;37879;52.986;6.282;2023-12-14T15:43:41;4.50;99.90
51825;DHT22;37879;52.986;6.282;2023-12-14T15:46:07;4.60;99.90
51825;DHT22;37879;52.986;6.282;2023-12-14T15:48:33;4.50;99.90